sensor_id;sensor_type;location;lat;lon;timestamp;temperature;humidity
38500;DHT22;24269;51.894;4.622;2023-02-04T00:01:19;8.40;99.90
38500;DHT22;24269;51.894;4.622;2023-02-04T00:03:45;8.30;99.90
38500;DHT22;24269;51.894;4.622;2023-02-04T00:06:10;8.30;99.90
38500;DHT22;24269;51.894;4.622;2023-02-04T00:08:36;8.30;99.90
38500;DHT22;24269;51.894;4.622;2023-02-04T00:11:02;8.30;99.90
38500;DHT22;24269;51.894;4.622;2023-02-04T00:13:28;8.30;99.90
38500;DHT22;24269;51.894;4.622;2023-02-04T00:15:54;8.30;99.90
38500;DHT22;24269;51.894;4.622;2023-02-04T00:18:19;8.30;99.90
38500;DHT22;24269;51.894;4.622;2023-02-04T00:20:45;8.30;99.90
38500;DHT22;24269;51.894;4.622;2023-02-04T00:23:10;8.30;99.90
38500;DHT22;24269;51.894;4.622;2023-02-04T00:25:36;8.30;99.90
38500;DHT22;24269;51.894;4.622;2023-02-04T00:28:02;8.30;99.90
38500;DHT22;24269;51.894;4.622;2023-02-04T00:30:28;8.30;99.90
38500;DHT22;24269;51.894;4.622;2023-02-04T00:32:54;8.30;99.90
38500;DHT22;24269;51.894;4.622;2023-02-04T00:35:23;8.30;99.90
38500;DHT22;24269;51.894;4.622;2023-02-04T00:37:49;8.30;99.90
38500;DHT22;24269;51.894;4.622;2023-02-04T00:40:15;8.30;99.90
38500;DHT22;24269;51.894;4.622;2023-02-04T00:42:41;8.30;99.90
38500;DHT22;24269;51.894;4.622;2023-02-04T00:45:09;8.30;99.90
38500;DHT22;24269;51.894;4.622;2023-02-04T00:47:34;8.30;99.90
38500;DHT22;24269;51.894;4.622;2023-02-04T00:50:00;8.30;99.90
38500;DHT22;24269;51.894;4.622;2023-02-04T00:52:26;8.30;99.90
38500;DHT22;24269;51.894;4.622;2023-02-04T00:54:51;8.30;99.90
38500;DHT22;24269;51.894;4.622;2023-02-04T00:57:17;8.30;99.90
38500;DHT22;24269;51.894;4.622;2023-02-04T00:59:43;8.30;99.90
38500;DHT22;24269;51.894;4.622;2023-02-04T01:02:09;8.30;99.90
38500;DHT22;24269;51.894;4.622;2023-02-04T01:04:34;8.30;99.90
38500;DHT22;24269;51.894;4.622;2023-02-04T01:07:00;8.30;99.90
38500;DHT22;24269;51.894;4.622;2023-02-04T01:09:26;8.30;99.90
38500;DHT22;24269;51.894;4.622;2023-02-04T01:11:51;8.30;99.90
38500;DHT22;24269;51.894;4.622;2023-02-04T01:14:17;8.30;99.90
38500;DHT22;24269;51.894;4.622;2023-02-04T01:16:43;8.30;99.90
38500;DHT22;24269;51.894;4.622;2023-02-04T01:19:09;8.30;99.90
38500;DHT22;24269;51.894;4.622;2023-02-04T01:21:36;8.30;99.90
38500;DHT22;24269;51.894;4.622;2023-02-04T01:24:02;8.30;99.90
38500;DHT22;24269;51.894;4.622;2023-02-04T01:26:28;8.30;99.90
38500;DHT22;24269;51.894;4.622;2023-02-04T01:28:53;8.30;99.90
38500;DHT22;24269;51.894;4.622;2023-02-04T01:31:19;8.30;99.90
38500;DHT22;24269;51.894;4.622;2023-02-04T01:33:45;8.20;99.90
38500;DHT22;24269;51.894;4.622;2023-02-04T01:36:10;8.20;99.90
38500;DHT22;24269;51.894;4.622;2023-02-04T01:38:36;8.20;99.90
38500;DHT22;24269;51.894;4.622;2023-02-04T01:41:02;8.20;99.90
38500;DHT22;24269;51.894;4.622;2023-02-04T01:43:28;8.20;99.90
38500;DHT22;24269;51.894;4.622;2023-02-04T01:45:55;8.20;99.90
38500;DHT22;24269;51.894;4.622;2023-02-04T01:48:21;8.20;99.90
38500;DHT22;24269;51.894;4.622;2023-02-04T01:50:54;8.20;99.90
38500;DHT22;24269;51.894;4.622;2023-02-04T01:53:24;8.20;99.90
38500;DHT22;24269;51.894;4.622;2023-02-04T01:55:51;8.20;99.90
38500;DHT22;24269;51.894;4.622;2023-02-04T01:58:17;8.20;99.90
38500;DHT22;24269;51.894;4.622;2023-02-04T02:00:43;8.20;99.90
38500;DHT22;24269;51.894;4.622;2023-02-04T02:03:09;8.20;99.90
38500;DHT22;24269;51.894;4.622;2023-02-04T02:05:47;8.20;99.90
38500;DHT22;24269;51.894;4.622;2023-02-04T02:08:13;8.20;99.90
38500;DHT22;24269;51.894;4.622;2023-02-04T02:10:43;8.20;99.90
38500;DHT22;24269;51.894;4.622;2023-02-04T02:13:12;8.20;99.90
38500;DHT22;24269;51.894;4.622;2023-02-04T02:15:38;8.20;99.90
38500;DHT22;24269;51.894;4.622;2023-02-04T02:18:04;8.20;99.90
38500;DHT22;24269;51.894;4.622;2023-02-04T02:20:30;8.20;99.90
38500;DHT22;24269;51.894;4.622;2023-02-04T02:23:09;8.20;99.90
38500;DHT22;24269;51.894;4.622;2023-02-04T02:25:37;8.20;99.90
38500;DHT22;24269;51.894;4.622;2023-02-04T02:28:16;8.20;99.90
38500;DHT22;24269;51.894;4.622;2023-02-04T02:30:43;8.20;99.90
38500;DHT22;24269;51.894;4.622;2023-02-04T02:33:15;8.20;99.90
38500;DHT22;24269;51.894;4.622;2023-02-04T02:35:43;8.20;99.90
38500;DHT22;24269;51.894;4.622;2023-02-04T02:38:11;8.20;99.90
38500;DHT22;24269;51.894;4.622;2023-02-04T02:40:38;8.20;99.90
38500;DHT22;24269;51.894;4.622;2023-02-04T02:43:04;8.10;99.90
38500;DHT22;24269;51.894;4.622;2023-02-04T02:45:31;8.10;99.90
38500;DHT22;24269;51.894;4.622;2023-02-04T02:47:59;8.10;99.90
38500;DHT22;24269;51.894;4.622;2023-02-04T02:50:28;8.10;99.90
38500;DHT22;24269;51.894;4.622;2023-02-04T02:52:54;8.10;99.90
38500;DHT22;24269;51.894;4.622;2023-02-04T02:55:22;8.10;99.90
38500;DHT22;24269;51.894;4.622;2023-02-04T02:57:49;8.10;99.90
38500;DHT22;24269;51.894;4.622;2023-02-04T03:00:18;8.10;99.90
38500;DHT22;24269;51.894;4.622;2023-02-04T03:02:45;8.10;99.90
38500;DHT22;24269;51.894;4.622;2023-02-04T03:05:12;8.00;99.90
38500;DHT22;24269;51.894;4.622;2023-02-04T03:07:38;8.00;99.90
38500;DHT22;24269;51.894;4.622;2023-02-04T03:10:03;8.00;99.90
38500;DHT22;24269;51.894;4.622;2023-02-04T03:12:29;8.00;99.90
38500;DHT22;24269;51.894;4.622;2023-02-04T03:14:55;8.00;99.90
38500;DHT22;24269;51.894;4.622;2023-02-04T03:17:21;8.00;99.90
38500;DHT22;24269;51.894;4.622;2023-02-04T03:19:47;8.00;99.90
38500;DHT22;24269;51.894;4.622;2023-02-04T03:22:13;8.00;99.90
38500;DHT22;24269;51.894;4.622;2023-02-04T03:24:39;8.00;99.90
38500;DHT22;24269;51.894;4.622;2023-02-04T03:27:06;8.00;99.90
38500;DHT22;24269;51.894;4.622;2023-02-04T03:29:32;8.00;99.90
38500;DHT22;24269;51.894;4.622;2023-02-04T03:31:58;7.90;99.90
38500;DHT22;24269;51.894;4.622;2023-02-04T03:34:24;7.90;99.90
38500;DHT22;24269;51.894;4.622;2023-02-04T03:36:50;7.90;99.90
38500;DHT22;24269;51.894;4.622;2023-02-04T03:39:16;7.90;99.90
38500;DHT22;24269;51.894;4.622;2023-02-04T03:41:41;7.90;99.90
38500;DHT22;24269;51.894;4.622;2023-02-04T03:44:07;7.80;99.90
38500;DHT22;24269;51.894;4.622;2023-02-04T03:46:33;7.70;99.90
38500;DHT22;24269;51.894;4.622;2023-02-04T03:48:58;7.70;99.90
38500;DHT22;24269;51.894;4.622;2023-02-04T03:51:24;7.60;99.90
38500;DHT22;24269;51.894;4.622;2023-02-04T03:53:50;7.60;99.90
38500;DHT22;24269;51.894;4.622;2023-02-04T03:56:15;7.50;99.90
38500;DHT22;24269;51.894;4.622;2023-02-04T03:58:41;7.50;99.90
38500;DHT22;24269;51.894;4.622;2023-02-04T04:01:07;7.50;99.90
38500;DHT22;24269;51.894;4.622;2023-02-04T04:03:32;7.50;99.90
38500;DHT22;24269;51.894;4.622;2023-02-04T04:05:58;7.50;99.90
38500;DHT22;24269;51.894;4.622;2023-02-04T04:08:24;7.50;99.90
38500;DHT22;24269;51.894;4.622;2023-02-04T04:10:50;7.50;99.90
38500;DHT22;24269;51.894;4.622;2023-02-04T04:13:15;7.60;99.90
38500;DHT22;24269;51.894;4.622;2023-02-04T04:15:41;7.60;99.90
38500;DHT22;24269;51.894;4.622;2023-02-04T04:18:06;7.60;99.90
38500;DHT22;24269;51.894;4.622;2023-02-04T04:20:32;7.60;99.90
38500;DHT22;24269;51.894;4.622;2023-02-04T04:22:58;7.60;99.90
38500;DHT22;24269;51.894;4.622;2023-02-04T04:25:23;7.60;99.90
38500;DHT22;24269;51.894;4.622;2023-02-04T04:27:49;7.60;99.90
38500;DHT22;24269;51.894;4.622;2023-02-04T04:30:15;7.60;99.90
38500;DHT22;24269;51.894;4.622;2023-02-04T04:32:40;7.60;99.90
38500;DHT22;24269;51.894;4.622;2023-02-04T04:35:06;7.60;99.90
38500;DHT22;24269;51.894;4.622;2023-02-04T04:37:32;7.60;99.90
38500;DHT22;24269;51.894;4.622;2023-02-04T04:39:59;7.70;99.90
38500;DHT22;24269;51.894;4.622;2023-02-04T04:42:26;7.70;99.90
38500;DHT22;24269;51.894;4.622;2023-02-04T04:44:51;7.70;99.90
38500;DHT22;24269;51.894;4.622;2023-02-04T04:47:17;7.70;99.90
38500;DHT22;24269;51.894;4.622;2023-02-04T04:49:42;7.80;99.90
38500;DHT22;24269;51.894;4.622;2023-02-04T04:52:08;7.70;99.90
38500;DHT22;24269;51.894;4.622;2023-02-04T04:54:35;7.80;99.90
38500;DHT22;24269;51.894;4.622;2023-02-04T04:57:00;7.80;99.90
38500;DHT22;24269;51.894;4.622;2023-02-04T04:59:26;7.70;99.90
38500;DHT22;24269;51.894;4.622;2023-02-04T05:01:52;7.80;99.90
38500;DHT22;24269;51.894;4.622;2023-02-04T05:04:17;7.80;99.90
38500;DHT22;24269;51.894;4.622;2023-02-04T05:06:43;7.80;99.90
38500;DHT22;24269;51.894;4.622;2023-02-04T05:09:09;7.80;99.90
38500;DHT22;24269;51.894;4.622;2023-02-04T05:11:35;7.80;99.90
38500;DHT22;24269;51.894;4.622;2023-02-04T05:14:00;7.80;99.90
38500;DHT22;24269;51.894;4.622;2023-02-04T05:16:26;7.80;99.90
38500;DHT22;24269;51.894;4.622;2023-02-04T05:18:52;7.80;99.90
38500;DHT22;24269;51.894;4.622;2023-02-04T05:21:18;7.80;99.90
38500;DHT22;24269;51.894;4.622;2023-02-04T05:23:44;7.90;99.90
38500;DHT22;24269;51.894;4.622;2023-02-04T05:26:09;7.80;99.90
38500;DHT22;24269;51.894;4.622;2023-02-04T05:28:35;7.90;99.90
38500;DHT22;24269;51.894;4.622;2023-02-04T05:31:00;7.90;99.90
38500;DHT22;24269;51.894;4.622;2023-02-04T05:33:26;7.90;99.90
38500;DHT22;24269;51.894;4.622;2023-02-04T05:35:52;7.90;99.90
38500;DHT22;24269;51.894;4.622;2023-02-04T05:38:17;7.90;99.90
38500;DHT22;24269;51.894;4.622;2023-02-04T05:40:43;7.90;99.90
38500;DHT22;24269;51.894;4.622;2023-02-04T05:43:08;7.90;99.90
38500;DHT22;24269;51.894;4.622;2023-02-04T05:45:35;7.90;99.90
38500;DHT22;24269;51.894;4.622;2023-02-04T05:48:00;7.90;99.90
38500;DHT22;24269;51.894;4.622;2023-02-04T05:50:26;7.90;99.90
38500;DHT22;24269;51.894;4.622;2023-02-04T05:52:52;7.90;99.90
38500;DHT22;24269;51.894;4.622;2023-02-04T05:55:17;7.90;99.90
38500;DHT22;24269;51.894;4.622;2023-02-04T05:57:43;7.90;99.90
38500;DHT22;24269;51.894;4.622;2023-02-04T06:00:10;7.90;99.90
38500;DHT22;24269;51.894;4.622;2023-02-04T06:02:35;7.90;99.90
38500;DHT22;24269;51.894;4.622;2023-02-04T06:05:01;7.90;99.90
38500;DHT22;24269;51.894;4.622;2023-02-04T06:07:27;7.90;99.90
38500;DHT22;24269;51.894;4.622;2023-02-04T06:09:52;7.90;99.90
38500;DHT22;24269;51.894;4.622;2023-02-04T06:12:18;7.90;99.90
38500;DHT22;24269;51.894;4.622;2023-02-04T06:14:43;7.90;99.90
38500;DHT22;24269;51.894;4.622;2023-02-04T06:17:09;7.90;99.90
38500;DHT22;24269;51.894;4.622;2023-02-04T06:19:34;7.90;99.90
38500;DHT22;24269;51.894;4.622;2023-02-04T06:22:00;7.90;99.90
38500;DHT22;24269;51.894;4.622;2023-02-04T06:24:26;7.90;99.90
38500;DHT22;24269;51.894;4.622;2023-02-04T06:26:51;7.90;99.90
38500;DHT22;24269;51.894;4.622;2023-02-04T06:29:17;8.00;99.90
38500;DHT22;24269;51.894;4.622;2023-02-04T06:31:42;8.00;99.90
38500;DHT22;24269;51.894;4.622;2023-02-04T06:34:09;7.90;99.90
38500;DHT22;24269;51.894;4.622;2023-02-04T06:36:34;7.90;99.90
38500;DHT22;24269;51.894;4.622;2023-02-04T06:39:00;7.90;99.90
38500;DHT22;24269;51.894;4.622;2023-02-04T06:41:25;7.90;99.90
38500;DHT22;24269;51.894;4.622;2023-02-04T06:43:51;8.00;99.90
38500;DHT22;24269;51.894;4.622;2023-02-04T06:46:17;7.90;99.90
38500;DHT22;24269;51.894;4.622;2023-02-04T06:48:42;8.00;99.90
38500;DHT22;24269;51.894;4.622;2023-02-04T06:51:08;7.90;99.90
38500;DHT22;24269;51.894;4.622;2023-02-04T06:53:33;8.00;99.90
38500;DHT22;24269;51.894;4.622;2023-02-04T06:55:59;8.00;99.90
38500;DHT22;24269;51.894;4.622;2023-02-04T06:58:25;8.00;99.90
38500;DHT22;24269;51.894;4.622;2023-02-04T07:00:50;8.00;99.90
38500;DHT22;24269;51.894;4.622;2023-02-04T07:03:16;8.00;99.90
38500;DHT22;24269;51.894;4.622;2023-02-04T07:05:41;8.00;99.90
38500;DHT22;24269;51.894;4.622;2023-02-04T07:08:07;8.00;99.90
38500;DHT22;24269;51.894;4.622;2023-02-04T07:10:33;8.00;99.90
38500;DHT22;24269;51.894;4.622;2023-02-04T07:12:58;8.00;99.90
38500;DHT22;24269;51.894;4.622;2023-02-04T07:15:24;8.00;99.90
38500;DHT22;24269;51.894;4.622;2023-02-04T07:17:49;8.00;99.90
38500;DHT22;24269;51.894;4.622;2023-02-04T07:20:15;8.00;99.90
38500;DHT22;24269;51.894;4.622;2023-02-04T07:22:41;8.00;99.90
38500;DHT22;24269;51.894;4.622;2023-02-04T07:25:08;8.00;99.90
38500;DHT22;24269;51.894;4.622;2023-02-04T07:27:34;8.00;99.90
38500;DHT22;24269;51.894;4.622;2023-02-04T07:30:00;8.00;99.90
38500;DHT22;24269;51.894;4.622;2023-02-04T07:32:25;8.00;99.90
38500;DHT22;24269;51.894;4.622;2023-02-04T07:34:52;8.10;99.90
38500;DHT22;24269;51.894;4.622;2023-02-04T07:37:18;8.10;99.90
38500;DHT22;24269;51.894;4.622;2023-02-04T07:39:45;8.10;99.90
38500;DHT22;24269;51.894;4.622;2023-02-04T07:42:10;8.10;99.90
38500;DHT22;24269;51.894;4.622;2023-02-04T07:44:36;8.10;99.90
38500;DHT22;24269;51.894;4.622;2023-02-04T07:47:02;8.20;99.90
38500;DHT22;24269;51.894;4.622;2023-02-04T07:49:27;8.20;99.90
38500;DHT22;24269;51.894;4.622;2023-02-04T07:51:53;8.20;99.90
38500;DHT22;24269;51.894;4.622;2023-02-04T07:54:19;8.20;99.90
38500;DHT22;24269;51.894;4.622;2023-02-04T07:56:44;8.20;99.90
38500;DHT22;24269;51.894;4.622;2023-02-04T07:59:10;8.30;99.90
38500;DHT22;24269;51.894;4.622;2023-02-04T08:01:36;8.30;99.90
38500;DHT22;24269;51.894;4.622;2023-02-04T08:04:01;8.30;99.90
38500;DHT22;24269;51.894;4.622;2023-02-04T08:06:27;8.30;99.90
38500;DHT22;24269;51.894;4.622;2023-02-04T08:08:53;8.30;99.90
38500;DHT22;24269;51.894;4.622;2023-02-04T08:11:19;8.30;99.90
38500;DHT22;24269;51.894;4.622;2023-02-04T08:13:44;8.40;99.90
38500;DHT22;24269;51.894;4.622;2023-02-04T08:16:10;8.40;99.90
38500;DHT22;24269;51.894;4.622;2023-02-04T08:18:35;8.40;99.90
38500;DHT22;24269;51.894;4.622;2023-02-04T08:21:01;8.40;99.90
38500;DHT22;24269;51.894;4.622;2023-02-04T08:23:29;8.40;99.90
38500;DHT22;24269;51.894;4.622;2023-02-04T08:25:55;8.40;99.90
38500;DHT22;24269;51.894;4.622;2023-02-04T08:28:20;8.40;99.90
38500;DHT22;24269;51.894;4.622;2023-02-04T08:30:46;8.40;99.90
38500;DHT22;24269;51.894;4.622;2023-02-04T08:33:11;8.50;99.90
38500;DHT22;24269;51.894;4.622;2023-02-04T08:35:37;8.50;99.90
38500;DHT22;24269;51.894;4.622;2023-02-04T08:38:03;8.50;99.90
38500;DHT22;24269;51.894;4.622;2023-02-04T08:40:28;8.50;99.90
38500;DHT22;24269;51.894;4.622;2023-02-04T08:42:54;8.60;99.90
38500;DHT22;24269;51.894;4.622;2023-02-04T08:45:19;8.60;99.90
38500;DHT22;24269;51.894;4.622;2023-02-04T08:47:45;8.60;99.90
38500;DHT22;24269;51.894;4.622;2023-02-04T08:50:11;8.60;99.90
38500;DHT22;24269;51.894;4.622;2023-02-04T08:52:36;8.70;99.90
38500;DHT22;24269;51.894;4.622;2023-02-04T08:55:03;8.60;99.90
38500;DHT22;24269;51.894;4.622;2023-02-04T08:57:29;8.70;99.90
38500;DHT22;24269;51.894;4.622;2023-02-04T08:59:54;8.70;99.90
38500;DHT22;24269;51.894;4.622;2023-02-04T09:02:20;8.70;99.90
38500;DHT22;24269;51.894;4.622;2023-02-04T09:04:45;8.80;99.90
38500;DHT22;24269;51.894;4.622;2023-02-04T09:07:11;8.80;99.90
38500;DHT22;24269;51.894;4.622;2023-02-04T09:09:37;8.90;99.90
38500;DHT22;24269;51.894;4.622;2023-02-04T09:12:02;8.90;99.90
38500;DHT22;24269;51.894;4.622;2023-02-04T09:14:28;8.90;99.90
38500;DHT22;24269;51.894;4.622;2023-02-04T09:16:53;8.90;99.90
38500;DHT22;24269;51.894;4.622;2023-02-04T09:19:19;9.00;99.90
38500;DHT22;24269;51.894;4.622;2023-02-04T09:21:52;9.00;99.90
38500;DHT22;24269;51.894;4.622;2023-02-04T09:24:18;9.10;99.90
38500;DHT22;24269;51.894;4.622;2023-02-04T09:26:44;9.10;99.90
38500;DHT22;24269;51.894;4.622;2023-02-04T09:29:10;9.20;99.90
38500;DHT22;24269;51.894;4.622;2023-02-04T09:31:35;9.30;99.90
38500;DHT22;24269;51.894;4.622;2023-02-04T09:34:01;9.40;99.90
38500;DHT22;24269;51.894;4.622;2023-02-04T09:36:26;9.50;99.90
38500;DHT22;24269;51.894;4.622;2023-02-04T09:38:55;9.50;99.90
38500;DHT22;24269;51.894;4.622;2023-02-04T09:41:20;9.50;99.90
38500;DHT22;24269;51.894;4.622;2023-02-04T09:43:46;9.50;99.90
38500;DHT22;24269;51.894;4.622;2023-02-04T09:46:21;9.60;99.90
38500;DHT22;24269;51.894;4.622;2023-02-04T09:48:48;9.60;99.90
38500;DHT22;24269;51.894;4.622;2023-02-04T09:51:18;9.60;99.90
38500;DHT22;24269;51.894;4.622;2023-02-04T09:53:46;9.70;99.90
38500;DHT22;24269;51.894;4.622;2023-02-04T09:56:23;9.70;99.90
38500;DHT22;24269;51.894;4.622;2023-02-04T09:58:50;9.90;99.90
38500;DHT22;24269;51.894;4.622;2023-02-04T10:01:18;10.00;99.90
38500;DHT22;24269;51.894;4.622;2023-02-04T10:03:45;10.10;99.90
38500;DHT22;24269;51.894;4.622;2023-02-04T10:06:16;10.10;99.90
38500;DHT22;24269;51.894;4.622;2023-02-04T10:08:43;10.20;99.90
38500;DHT22;24269;51.894;4.622;2023-02-04T10:11:10;10.20;99.90
38500;DHT22;24269;51.894;4.622;2023-02-04T10:13:54;10.30;99.90
38500;DHT22;24269;51.894;4.622;2023-02-04T10:16:29;10.30;99.90
38500;DHT22;24269;51.894;4.622;2023-02-04T10:19:00;10.30;99.90
38500;DHT22;24269;51.894;4.622;2023-02-04T10:21:31;10.50;99.90
38500;DHT22;24269;51.894;4.622;2023-02-04T10:24:00;10.50;99.90
38500;DHT22;24269;51.894;4.622;2023-02-04T10:26:28;10.50;99.90
38500;DHT22;24269;51.894;4.622;2023-02-04T10:29:02;10.60;99.90
38500;DHT22;24269;51.894;4.622;2023-02-04T10:31:34;10.50;99.90
38500;DHT22;24269;51.894;4.622;2023-02-04T10:36:36;10.20;99.90
38500;DHT22;24269;51.894;4.622;2023-02-04T10:39:04;10.10;99.90
38500;DHT22;24269;51.894;4.622;2023-02-04T10:41:30;10.00;99.90
38500;DHT22;24269;51.894;4.622;2023-02-04T10:44:19;9.90;99.90
38500;DHT22;24269;51.894;4.622;2023-02-04T10:47:14;9.70;99.90
38500;DHT22;24269;51.894;4.622;2023-02-04T10:49:41;9.70;99.90
38500;DHT22;24269;51.894;4.622;2023-02-04T10:52:16;9.70;99.90
38500;DHT22;24269;51.894;4.622;2023-02-04T10:54:43;9.60;99.90
38500;DHT22;24269;51.894;4.622;2023-02-04T10:57:28;9.60;99.90
38500;DHT22;24269;51.894;4.622;2023-02-04T10:59:57;9.60;99.90
38500;DHT22;24269;51.894;4.622;2023-02-04T11:02:30;9.60;99.90
38500;DHT22;24269;51.894;4.622;2023-02-04T11:05:03;9.50;99.90
38500;DHT22;24269;51.894;4.622;2023-02-04T11:08:17;9.50;99.90
38500;DHT22;24269;51.894;4.622;2023-02-04T11:10:44;9.60;99.90
38500;DHT22;24269;51.894;4.622;2023-02-04T11:13:21;9.70;99.90
38500;DHT22;24269;51.894;4.622;2023-02-04T11:15:49;9.70;99.90
38500;DHT22;24269;51.894;4.622;2023-02-04T11:20:45;9.70;99.90
38500;DHT22;24269;51.894;4.622;2023-02-04T11:25:39;9.90;99.90
38500;DHT22;24269;51.894;4.622;2023-02-04T11:28:22;9.80;99.90
38500;DHT22;24269;51.894;4.622;2023-02-04T11:30:58;9.90;99.90
38500;DHT22;24269;51.894;4.622;2023-02-04T11:33:25;9.90;99.90
38500;DHT22;24269;51.894;4.622;2023-02-04T11:36:08;9.90;99.90
38500;DHT22;24269;51.894;4.622;2023-02-04T11:38:36;10.00;99.90
38500;DHT22;24269;51.894;4.622;2023-02-04T11:41:03;9.90;99.90
38500;DHT22;24269;51.894;4.622;2023-02-04T11:43:32;10.00;99.90
38500;DHT22;24269;51.894;4.622;2023-02-04T11:46:14;10.00;99.90
38500;DHT22;24269;51.894;4.622;2023-02-04T11:48:40;10.00;99.90
38500;DHT22;24269;51.894;4.622;2023-02-04T11:51:17;10.00;99.90
38500;DHT22;24269;51.894;4.622;2023-02-04T11:53:49;10.00;99.90
38500;DHT22;24269;51.894;4.622;2023-02-04T11:56:20;10.10;99.90
38500;DHT22;24269;51.894;4.622;2023-02-04T11:58:47;10.00;99.90
38500;DHT22;24269;51.894;4.622;2023-02-04T12:01:20;9.90;99.90
38500;DHT22;24269;51.894;4.622;2023-02-04T12:03:48;10.00;99.90
38500;DHT22;24269;51.894;4.622;2023-02-04T12:06:29;10.00;99.90
38500;DHT22;24269;51.894;4.622;2023-02-04T12:11:34;10.00;99.90
38500;DHT22;24269;51.894;4.622;2023-02-04T12:14:18;10.10;99.90
38500;DHT22;24269;51.894;4.622;2023-02-04T12:16:45;10.10;99.90
38500;DHT22;24269;51.894;4.622;2023-02-04T12:19:11;10.20;99.90
38500;DHT22;24269;51.894;4.622;2023-02-04T12:21:37;10.10;99.90
38500;DHT22;24269;51.894;4.622;2023-02-04T12:24:03;10.20;99.90
38500;DHT22;24269;51.894;4.622;2023-02-04T12:26:29;10.10;99.90
38500;DHT22;24269;51.894;4.622;2023-02-04T12:28:55;10.10;99.90
38500;DHT22;24269;51.894;4.622;2023-02-04T12:31:20;10.10;99.90
38500;DHT22;24269;51.894;4.622;2023-02-04T12:33:46;10.10;99.90
38500;DHT22;24269;51.894;4.622;2023-02-04T12:36:12;10.00;99.90
38500;DHT22;24269;51.894;4.622;2023-02-04T12:38:37;10.00;99.90
38500;DHT22;24269;51.894;4.622;2023-02-04T12:41:03;10.20;99.90
38500;DHT22;24269;51.894;4.622;2023-02-04T12:43:29;10.20;99.90
38500;DHT22;24269;51.894;4.622;2023-02-04T12:45:54;10.20;99.90
38500;DHT22;24269;51.894;4.622;2023-02-04T12:48:20;10.30;99.90
38500;DHT22;24269;51.894;4.622;2023-02-04T12:50:45;10.20;99.90
38500;DHT22;24269;51.894;4.622;2023-02-04T12:53:11;10.20;99.90
38500;DHT22;24269;51.894;4.622;2023-02-04T12:55:37;10.20;99.90
38500;DHT22;24269;51.894;4.622;2023-02-04T12:58:02;10.30;99.90
38500;DHT22;24269;51.894;4.622;2023-02-04T13:00:28;10.20;99.90
38500;DHT22;24269;51.894;4.622;2023-02-04T13:02:54;10.20;99.90
38500;DHT22;24269;51.894;4.622;2023-02-04T13:05:20;10.20;99.90
38500;DHT22;24269;51.894;4.622;2023-02-04T13:07:46;10.10;99.90
38500;DHT22;24269;51.894;4.622;2023-02-04T13:10:12;10.10;99.90
38500;DHT22;24269;51.894;4.622;2023-02-04T13:12:38;10.10;99.90
38500;DHT22;24269;51.894;4.622;2023-02-04T13:15:04;10.10;99.90
38500;DHT22;24269;51.894;4.622;2023-02-04T13:17:30;10.10;99.90
38500;DHT22;24269;51.894;4.622;2023-02-04T13:19:56;10.10;99.90
38500;DHT22;24269;51.894;4.622;2023-02-04T13:22:22;10.10;99.90
38500;DHT22;24269;51.894;4.622;2023-02-04T13:24:47;10.10;99.90
38500;DHT22;24269;51.894;4.622;2023-02-04T13:27:13;10.00;99.90
38500;DHT22;24269;51.894;4.622;2023-02-04T13:29:39;10.00;99.90
38500;DHT22;24269;51.894;4.622;2023-02-04T13:32:05;10.00;99.90
38500;DHT22;24269;51.894;4.622;2023-02-04T13:34:30;10.00;99.90
38500;DHT22;24269;51.894;4.622;2023-02-04T13:36:56;10.00;99.90
38500;DHT22;24269;51.894;4.622;2023-02-04T13:39:22;10.00;99.90
38500;DHT22;24269;51.894;4.622;2023-02-04T13:41:48;10.00;99.90
38500;DHT22;24269;51.894;4.622;2023-02-04T13:44:14;10.00;99.90
38500;DHT22;24269;51.894;4.622;2023-02-04T13:46:39;10.00;99.90
38500;DHT22;24269;51.894;4.622;2023-02-04T13:49:05;10.00;99.90
38500;DHT22;24269;51.894;4.622;2023-02-04T13:51:31;10.00;99.90
38500;DHT22;24269;51.894;4.622;2023-02-04T13:53:56;10.00;99.90
38500;DHT22;24269;51.894;4.622;2023-02-04T13:56:23;9.90;99.90
38500;DHT22;24269;51.894;4.622;2023-02-04T13:58:49;9.90;99.90
38500;DHT22;24269;51.894;4.622;2023-02-04T14:01:15;9.90;99.90
38500;DHT22;24269;51.894;4.622;2023-02-04T14:03:40;9.90;99.90
38500;DHT22;24269;51.894;4.622;2023-02-04T14:06:07;9.80;99.90
38500;DHT22;24269;51.894;4.622;2023-02-04T14:08:33;9.80;99.90
38500;DHT22;24269;51.894;4.622;2023-02-04T14:10:59;9.80;99.90
38500;DHT22;24269;51.894;4.622;2023-02-04T14:13:25;9.80;99.90
38500;DHT22;24269;51.894;4.622;2023-02-04T14:15:50;9.70;99.90
38500;DHT22;24269;51.894;4.622;2023-02-04T14:18:16;9.70;99.90
38500;DHT22;24269;51.894;4.622;2023-02-04T14:20:42;9.70;99.90
38500;DHT22;24269;51.894;4.622;2023-02-04T14:23:08;9.70;99.90
38500;DHT22;24269;51.894;4.622;2023-02-04T14:25:33;9.70;99.90
38500;DHT22;24269;51.894;4.622;2023-02-04T14:27:59;9.70;99.90
38500;DHT22;24269;51.894;4.622;2023-02-04T14:30:27;9.70;99.90
38500;DHT22;24269;51.894;4.622;2023-02-04T14:32:54;9.70;99.90
38500;DHT22;24269;51.894;4.622;2023-02-04T14:35:20;9.80;99.90
38500;DHT22;24269;51.894;4.622;2023-02-04T14:37:46;9.80;99.90
38500;DHT22;24269;51.894;4.622;2023-02-04T14:40:13;9.80;99.90
38500;DHT22;24269;51.894;4.622;2023-02-04T14:42:39;9.90;99.90
38500;DHT22;24269;51.894;4.622;2023-02-04T14:45:06;9.90;99.90
38500;DHT22;24269;51.894;4.622;2023-02-04T14:47:36;9.90;99.90
38500;DHT22;24269;51.894;4.622;2023-02-04T14:50:03;9.90;99.90
38500;DHT22;24269;51.894;4.622;2023-02-04T14:52:29;9.90;99.90
38500;DHT22;24269;51.894;4.622;2023-02-04T14:54:55;9.80;99.90
38500;DHT22;24269;51.894;4.622;2023-02-04T14:57:21;9.80;99.90
38500;DHT22;24269;51.894;4.622;2023-02-04T14:59:47;9.80;99.90
38500;DHT22;24269;51.894;4.622;2023-02-04T15:02:12;9.70;99.90
38500;DHT22;24269;51.894;4.622;2023-02-04T15:04:42;9.70;99.90
38500;DHT22;24269;51.894;4.622;2023-02-04T15:07:07;9.70;99.90
38500;DHT22;24269;51.894;4.622;2023-02-04T15:09:33;9.70;99.90
38500;DHT22;24269;51.894;4.622;2023-02-04T15:11:59;9.70;99.90
38500;DHT22;24269;51.894;4.622;2023-02-04T15:14:24;9.70;99.90
38500;DHT22;24269;51.894;4.622;2023-02-04T15:16:50;9.70;99.90
38500;DHT22;24269;51.894;4.622;2023-02-04T15:19:16;9.70;99.90
38500;DHT22;24269;51.894;4.622;2023-02-04T15:21:44;9.70;99.90
38500;DHT22;24269;51.894;4.622;2023-02-04T15:24:10;9.70;99.90
38500;DHT22;24269;51.894;4.622;2023-02-04T15:26:35;9.60;99.90
38500;DHT22;24269;51.894;4.622;2023-02-04T15:29:01;9.60;99.90
38500;DHT22;24269;51.894;4.622;2023-02-04T15:31:27;9.60;99.90
38500;DHT22;24269;51.894;4.622;2023-02-04T15:33:52;9.60;99.90
38500;DHT22;24269;51.894;4.622;2023-02-04T15:36:18;9.60;99.90
38500;DHT22;24269;51.894;4.622;2023-02-04T15:38:44;9.60;99.90
38500;DHT22;24269;51.894;4.622;2023-02-04T15:41:10;9.50;99.90
38500;DHT22;24269;51.894;4.622;2023-02-04T15:43:36;9.60;99.90
38500;DHT22;24269;51.894;4.622;2023-02-04T15:46:02;9.60;99.90
38500;DHT22;24269;51.894;4.622;2023-02-04T15:48:28;9.60;99.90
38500;DHT22;24269;51.894;4.622;2023-02-04T15:50:54;9.60;99.90